sensor_id;sensor_type;location;lat;lon;timestamp;P1;durP1;ratioP1;P2;durP2;ratioP2
51664;SDS011;37751;52.408;12.536;2023-04-15T00:01:09;26.20;;;16.87;;
51664;SDS011;37751;52.408;12.536;2023-04-15T00:03:38;26.10;;;17.27;;
51664;SDS011;37751;52.408;12.536;2023-04-15T00:06:06;32.67;;;20.20;;
51664;SDS011;37751;52.408;12.536;2023-04-15T00:08:33;31.63;;;18.30;;
51664;SDS011;37751;52.408;12.536;2023-04-15T00:11:01;38.23;;;21.33;;
51664;SDS011;37751;52.408;12.536;2023-04-15T00:13:31;37.30;;;21.20;;
51664;SDS011;37751;52.408;12.536;2023-04-15T00:16:00;35.43;;;20.97;;
51664;SDS011;37751;52.408;12.536;2023-04-15T00:18:28;34.57;;;20.77;;
51664;SDS011;37751;52.408;12.536;2023-04-15T00:20:56;33.50;;;19.67;;
51664;SDS011;37751;52.408;12.536;2023-04-15T00:23:24;34.93;;;21.07;;
51664;SDS011;37751;52.408;12.536;2023-04-15T00:25:52;36.13;;;21.47;;
51664;SDS011;37751;52.408;12.536;2023-04-15T00:28:20;34.20;;;19.13;;
51664;SDS011;37751;52.408;12.536;2023-04-15T00:30:48;36.43;;;21.60;;
51664;SDS011;37751;52.408;12.536;2023-04-15T00:33:16;33.17;;;20.63;;
51664;SDS011;37751;52.408;12.536;2023-04-15T00:35:44;37.23;;;22.17;;
51664;SDS011;37751;52.408;12.536;2023-04-15T00:38:12;32.30;;;18.83;;
51664;SDS011;37751;52.408;12.536;2023-04-15T00:40:41;38.30;;;20.20;;
51664;SDS011;37751;52.408;12.536;2023-04-15T00:43:09;36.07;;;21.77;;
51664;SDS011;37751;52.408;12.536;2023-04-15T00:45:37;30.23;;;18.87;;
51664;SDS011;37751;52.408;12.536;2023-04-15T00:48:05;27.37;;;17.80;;
51664;SDS011;37751;52.408;12.536;2023-04-15T00:50:33;28.80;;;18.73;;
51664;SDS011;37751;52.408;12.536;2023-04-15T00:53:01;27.97;;;17.50;;
51664;SDS011;37751;52.408;12.536;2023-04-15T00:55:28;25.23;;;16.53;;
51664;SDS011;37751;52.408;12.536;2023-04-15T00:57:56;27.83;;;18.37;;
51664;SDS011;37751;52.408;12.536;2023-04-15T01:00:24;27.37;;;18.67;;
51664;SDS011;37751;52.408;12.536;2023-04-15T01:02:52;26.90;;;17.03;;
51664;SDS011;37751;52.408;12.536;2023-04-15T01:05:20;25.10;;;16.73;;
51664;SDS011;37751;52.408;12.536;2023-04-15T01:07:48;27.30;;;17.83;;
51664;SDS011;37751;52.408;12.536;2023-04-15T01:10:16;24.17;;;16.73;;
51664;SDS011;37751;52.408;12.536;2023-04-15T01:12:43;25.17;;;17.20;;
51664;SDS011;37751;52.408;12.536;2023-04-15T01:15:11;22.43;;;16.13;;
51664;SDS011;37751;52.408;12.536;2023-04-15T01:17:39;23.33;;;15.80;;
51664;SDS011;37751;52.408;12.536;2023-04-15T01:20:07;24.80;;;16.63;;
51664;SDS011;37751;52.408;12.536;2023-04-15T01:22:37;22.93;;;15.17;;
51664;SDS011;37751;52.408;12.536;2023-04-15T01:25:11;22.83;;;15.80;;
51664;SDS011;37751;52.408;12.536;2023-04-15T01:27:43;23.03;;;16.20;;
51664;SDS011;37751;52.408;12.536;2023-04-15T01:30:11;24.30;;;16.17;;
51664;SDS011;37751;52.408;12.536;2023-04-15T01:32:39;22.43;;;15.70;;
51664;SDS011;37751;52.408;12.536;2023-04-15T01:35:25;22.47;;;16.30;;
51664;SDS011;37751;52.408;12.536;2023-04-15T01:37:53;22.13;;;16.37;;
51664;SDS011;37751;52.408;12.536;2023-04-15T01:40:34;21.43;;;15.97;;
51664;SDS011;37751;52.408;12.536;2023-04-15T01:43:03;23.07;;;15.33;;
51664;SDS011;37751;52.408;12.536;2023-04-15T01:45:32;23.57;;;15.70;;
51664;SDS011;37751;52.408;12.536;2023-04-15T01:48:04;24.40;;;16.17;;
51664;SDS011;37751;52.408;12.536;2023-04-15T01:50:38;21.97;;;16.07;;
51664;SDS011;37751;52.408;12.536;2023-04-15T01:53:07;23.63;;;16.40;;
51664;SDS011;37751;52.408;12.536;2023-04-15T01:55:36;25.23;;;16.70;;
51664;SDS011;37751;52.408;12.536;2023-04-15T01:58:05;25.83;;;17.20;;
51664;SDS011;37751;52.408;12.536;2023-04-15T02:00:34;23.23;;;16.23;;
51664;SDS011;37751;52.408;12.536;2023-04-15T02:03:03;23.13;;;15.97;;
51664;SDS011;37751;52.408;12.536;2023-04-15T02:05:32;25.30;;;16.17;;
51664;SDS011;37751;52.408;12.536;2023-04-15T02:08:04;24.03;;;16.40;;
51664;SDS011;37751;52.408;12.536;2023-04-15T02:10:33;24.30;;;16.80;;
51664;SDS011;37751;52.408;12.536;2023-04-15T02:13:02;25.63;;;17.00;;
51664;SDS011;37751;52.408;12.536;2023-04-15T02:15:31;26.07;;;17.60;;
51664;SDS011;37751;52.408;12.536;2023-04-15T02:18:00;25.93;;;17.80;;
51664;SDS011;37751;52.408;12.536;2023-04-15T02:20:30;29.73;;;18.53;;
51664;SDS011;37751;52.408;12.536;2023-04-15T02:22:59;25.20;;;17.77;;
51664;SDS011;37751;52.408;12.536;2023-04-15T02:25:29;28.93;;;19.30;;
51664;SDS011;37751;52.408;12.536;2023-04-15T02:27:58;29.63;;;20.67;;
51664;SDS011;37751;52.408;12.536;2023-04-15T02:30:26;29.03;;;20.03;;
51664;SDS011;37751;52.408;12.536;2023-04-15T02:32:55;29.63;;;18.60;;
51664;SDS011;37751;52.408;12.536;2023-04-15T02:35:25;29.27;;;19.63;;
51664;SDS011;37751;52.408;12.536;2023-04-15T02:37:55;32.97;;;21.33;;
51664;SDS011;37751;52.408;12.536;2023-04-15T02:40:24;30.67;;;20.53;;
51664;SDS011;37751;52.408;12.536;2023-04-15T02:42:54;29.80;;;19.77;;
51664;SDS011;37751;52.408;12.536;2023-04-15T02:45:23;30.77;;;21.10;;
51664;SDS011;37751;52.408;12.536;2023-04-15T02:47:54;31.80;;;21.23;;
51664;SDS011;37751;52.408;12.536;2023-04-15T02:50:23;33.03;;;21.93;;
51664;SDS011;37751;52.408;12.536;2023-04-15T02:52:53;34.10;;;22.50;;
51664;SDS011;37751;52.408;12.536;2023-04-15T02:55:22;35.60;;;24.00;;
51664;SDS011;37751;52.408;12.536;2023-04-15T02:57:51;33.90;;;23.23;;
51664;SDS011;37751;52.408;12.536;2023-04-15T03:00:20;39.03;;;25.00;;
51664;SDS011;37751;52.408;12.536;2023-04-15T03:02:49;37.73;;;23.87;;
51664;SDS011;37751;52.408;12.536;2023-04-15T03:05:24;38.77;;;24.03;;
51664;SDS011;37751;52.408;12.536;2023-04-15T03:07:53;35.80;;;23.77;;
51664;SDS011;37751;52.408;12.536;2023-04-15T03:10:22;38.73;;;25.60;;
51664;SDS011;37751;52.408;12.536;2023-04-15T03:12:51;40.00;;;24.73;;
51664;SDS011;37751;52.408;12.536;2023-04-15T03:15:22;41.17;;;23.87;;
51664;SDS011;37751;52.408;12.536;2023-04-15T03:17:53;40.57;;;25.70;;
51664;SDS011;37751;52.408;12.536;2023-04-15T03:20:22;38.13;;;24.93;;
51664;SDS011;37751;52.408;12.536;2023-04-15T03:22:52;39.67;;;25.63;;
51664;SDS011;37751;52.408;12.536;2023-04-15T03:25:22;40.23;;;25.80;;
51664;SDS011;37751;52.408;12.536;2023-04-15T03:27:51;45.57;;;29.47;;
51664;SDS011;37751;52.408;12.536;2023-04-15T03:30:20;44.67;;;29.37;;
51664;SDS011;37751;52.408;12.536;2023-04-15T03:32:49;43.00;;;28.33;;
51664;SDS011;37751;52.408;12.536;2023-04-15T03:35:18;47.97;;;29.03;;
51664;SDS011;37751;52.408;12.536;2023-04-15T03:37:47;47.03;;;27.57;;
51664;SDS011;37751;52.408;12.536;2023-04-15T03:40:16;52.20;;;29.80;;
51664;SDS011;37751;52.408;12.536;2023-04-15T03:42:45;47.53;;;29.63;;
51664;SDS011;37751;52.408;12.536;2023-04-15T03:45:14;43.90;;;27.87;;
51664;SDS011;37751;52.408;12.536;2023-04-15T03:47:43;47.60;;;30.83;;
51664;SDS011;37751;52.408;12.536;2023-04-15T03:50:12;46.80;;;29.33;;
51664;SDS011;37751;52.408;12.536;2023-04-15T03:52:41;48.03;;;30.13;;
51664;SDS011;37751;52.408;12.536;2023-04-15T03:55:09;50.33;;;30.10;;
51664;SDS011;37751;52.408;12.536;2023-04-15T03:57:38;51.43;;;30.63;;
51664;SDS011;37751;52.408;12.536;2023-04-15T04:00:08;54.27;;;31.60;;
51664;SDS011;37751;52.408;12.536;2023-04-15T04:02:40;48.83;;;29.97;;
51664;SDS011;37751;52.408;12.536;2023-04-15T04:05:09;55.00;;;32.23;;
51664;SDS011;37751;52.408;12.536;2023-04-15T04:07:38;54.13;;;31.30;;
51664;SDS011;37751;52.408;12.536;2023-04-15T04:10:07;53.03;;;30.93;;
51664;SDS011;37751;52.408;12.536;2023-04-15T04:12:36;53.93;;;30.87;;
51664;SDS011;37751;52.408;12.536;2023-04-15T04:15:05;56.60;;;32.90;;
51664;SDS011;37751;52.408;12.536;2023-04-15T04:17:35;54.80;;;32.70;;
51664;SDS011;37751;52.408;12.536;2023-04-15T04:20:04;57.83;;;32.57;;
51664;SDS011;37751;52.408;12.536;2023-04-15T04:22:38;56.57;;;34.23;;
51664;SDS011;37751;52.408;12.536;2023-04-15T04:25:08;62.00;;;34.10;;
51664;SDS011;37751;52.408;12.536;2023-04-15T04:27:40;57.97;;;35.13;;
51664;SDS011;37751;52.408;12.536;2023-04-15T04:30:09;57.83;;;34.50;;
51664;SDS011;37751;52.408;12.536;2023-04-15T04:32:38;58.30;;;33.97;;
51664;SDS011;37751;52.408;12.536;2023-04-15T04:35:07;62.30;;;35.47;;
51664;SDS011;37751;52.408;12.536;2023-04-15T04:37:36;58.13;;;34.77;;
51664;SDS011;37751;52.408;12.536;2023-04-15T04:40:05;58.53;;;35.10;;
51664;SDS011;37751;52.408;12.536;2023-04-15T04:42:35;61.67;;;35.80;;
51664;SDS011;37751;52.408;12.536;2023-04-15T04:45:07;61.23;;;35.77;;
51664;SDS011;37751;52.408;12.536;2023-04-15T04:47:37;62.30;;;35.00;;
51664;SDS011;37751;52.408;12.536;2023-04-15T04:50:07;54.90;;;34.83;;
51664;SDS011;37751;52.408;12.536;2023-04-15T04:52:36;63.43;;;35.97;;
51664;SDS011;37751;52.408;12.536;2023-04-15T04:55:06;61.53;;;35.97;;
51664;SDS011;37751;52.408;12.536;2023-04-15T04:57:36;58.47;;;35.57;;
51664;SDS011;37751;52.408;12.536;2023-04-15T05:00:07;59.80;;;36.27;;
51664;SDS011;37751;52.408;12.536;2023-04-15T05:02:36;62.07;;;35.77;;
51664;SDS011;37751;52.408;12.536;2023-04-15T05:05:05;64.57;;;35.50;;
51664;SDS011;37751;52.408;12.536;2023-04-15T05:07:35;64.80;;;36.90;;
51664;SDS011;37751;52.408;12.536;2023-04-15T05:10:04;64.17;;;37.50;;
51664;SDS011;37751;52.408;12.536;2023-04-15T05:12:34;63.47;;;35.50;;
51664;SDS011;37751;52.408;12.536;2023-04-15T05:15:05;58.37;;;34.90;;
51664;SDS011;37751;52.408;12.536;2023-04-15T05:17:35;62.13;;;34.83;;
51664;SDS011;37751;52.408;12.536;2023-04-15T05:20:04;62.93;;;36.67;;
51664;SDS011;37751;52.408;12.536;2023-04-15T05:22:34;64.33;;;35.30;;
51664;SDS011;37751;52.408;12.536;2023-04-15T05:25:03;57.03;;;33.83;;
51664;SDS011;37751;52.408;12.536;2023-04-15T05:27:33;55.73;;;32.33;;
51664;SDS011;37751;52.408;12.536;2023-04-15T05:30:02;57.80;;;36.00;;
51664;SDS011;37751;52.408;12.536;2023-04-15T05:32:31;55.07;;;34.83;;
51664;SDS011;37751;52.408;12.536;2023-04-15T05:35:00;60.90;;;33.90;;
51664;SDS011;37751;52.408;12.536;2023-04-15T05:37:29;56.60;;;34.23;;
51664;SDS011;37751;52.408;12.536;2023-04-15T05:39:58;62.40;;;36.00;;
51664;SDS011;37751;52.408;12.536;2023-04-15T05:42:26;56.77;;;34.00;;
51664;SDS011;37751;52.408;12.536;2023-04-15T05:44:55;58.60;;;35.87;;
51664;SDS011;37751;52.408;12.536;2023-04-15T05:47:24;60.00;;;35.90;;
51664;SDS011;37751;52.408;12.536;2023-04-15T05:49:53;58.87;;;34.47;;
51664;SDS011;37751;52.408;12.536;2023-04-15T05:52:23;59.87;;;35.97;;
51664;SDS011;37751;52.408;12.536;2023-04-15T05:54:52;58.10;;;34.93;;
51664;SDS011;37751;52.408;12.536;2023-04-15T05:57:21;57.70;;;35.27;;
51664;SDS011;37751;52.408;12.536;2023-04-15T05:59:50;59.20;;;34.60;;
51664;SDS011;37751;52.408;12.536;2023-04-15T06:02:20;57.13;;;35.57;;
51664;SDS011;37751;52.408;12.536;2023-04-15T06:04:49;60.93;;;35.60;;
51664;SDS011;37751;52.408;12.536;2023-04-15T06:07:18;61.20;;;35.17;;
51664;SDS011;37751;52.408;12.536;2023-04-15T06:09:47;56.83;;;33.63;;
51664;SDS011;37751;52.408;12.536;2023-04-15T06:12:16;58.73;;;34.33;;
51664;SDS011;37751;52.408;12.536;2023-04-15T06:14:45;55.30;;;33.50;;
51664;SDS011;37751;52.408;12.536;2023-04-15T06:17:14;59.30;;;33.73;;
51664;SDS011;37751;52.408;12.536;2023-04-15T06:19:46;61.77;;;35.60;;
51664;SDS011;37751;52.408;12.536;2023-04-15T06:22:16;59.73;;;35.17;;
51664;SDS011;37751;52.408;12.536;2023-04-15T06:24:45;58.77;;;35.63;;
51664;SDS011;37751;52.408;12.536;2023-04-15T06:27:15;58.83;;;34.83;;
51664;SDS011;37751;52.408;12.536;2023-04-15T06:29:44;54.23;;;33.70;;
51664;SDS011;37751;52.408;12.536;2023-04-15T06:32:13;53.43;;;33.30;;
51664;SDS011;37751;52.408;12.536;2023-04-15T06:34:42;51.67;;;33.13;;
51664;SDS011;37751;52.408;12.536;2023-04-15T06:37:11;53.87;;;33.50;;
51664;SDS011;37751;52.408;12.536;2023-04-15T06:39:43;57.22;;;34.05;;
51664;SDS011;37751;52.408;12.536;2023-04-15T06:42:12;50.50;;;32.67;;
51664;SDS011;37751;52.408;12.536;2023-04-15T06:44:41;59.38;;;36.58;;
51664;SDS011;37751;52.408;12.536;2023-04-15T06:47:10;48.22;;;30.67;;
51664;SDS011;37751;52.408;12.536;2023-04-15T06:49:42;44.90;;;29.63;;
51664;SDS011;37751;52.408;12.536;2023-04-15T06:52:11;47.03;;;30.88;;
51664;SDS011;37751;52.408;12.536;2023-04-15T06:54:40;41.43;;;29.90;;
51664;SDS011;37751;52.408;12.536;2023-04-15T06:57:09;41.17;;;28.77;;
51664;SDS011;37751;52.408;12.536;2023-04-15T06:59:38;41.83;;;25.70;;
51664;SDS011;37751;52.408;12.536;2023-04-15T07:02:07;38.90;;;27.67;;
51664;SDS011;37751;52.408;12.536;2023-04-15T07:04:40;39.70;;;26.40;;
51664;SDS011;37751;52.408;12.536;2023-04-15T07:07:09;38.58;;;24.90;;
51664;SDS011;37751;52.408;12.536;2023-04-15T07:09:38;40.55;;;27.33;;
51664;SDS011;37751;52.408;12.536;2023-04-15T07:12:08;35.47;;;26.45;;
51664;SDS011;37751;52.408;12.536;2023-04-15T07:14:36;37.67;;;24.27;;
51664;SDS011;37751;52.408;12.536;2023-04-15T07:17:05;37.90;;;23.50;;
51664;SDS011;37751;52.408;12.536;2023-04-15T07:19:35;34.10;;;23.20;;
51664;SDS011;37751;52.408;12.536;2023-04-15T07:22:05;30.92;;;23.25;;
51664;SDS011;37751;52.408;12.536;2023-04-15T07:24:34;31.90;;;22.45;;
51664;SDS011;37751;52.408;12.536;2023-04-15T07:27:03;34.17;;;21.35;;
51664;SDS011;37751;52.408;12.536;2023-04-15T07:29:32;32.30;;;21.85;;
51664;SDS011;37751;52.408;12.536;2023-04-15T07:32:01;34.38;;;22.20;;
51664;SDS011;37751;52.408;12.536;2023-04-15T07:34:32;30.17;;;21.75;;
51664;SDS011;37751;52.408;12.536;2023-04-15T07:37:01;27.88;;;20.15;;
51664;SDS011;37751;52.408;12.536;2023-04-15T07:39:31;30.90;;;21.05;;
51664;SDS011;37751;52.408;12.536;2023-04-15T07:41:59;28.40;;;20.45;;
51664;SDS011;37751;52.408;12.536;2023-04-15T07:44:29;28.45;;;19.58;;
51664;SDS011;37751;52.408;12.536;2023-04-15T07:46:58;25.33;;;18.40;;
51664;SDS011;37751;52.408;12.536;2023-04-15T07:49:27;31.10;;;19.05;;
51664;SDS011;37751;52.408;12.536;2023-04-15T07:51:56;24.40;;;18.38;;
51664;SDS011;37751;52.408;12.536;2023-04-15T07:54:27;23.60;;;17.35;;
51664;SDS011;37751;52.408;12.536;2023-04-15T07:56:56;21.52;;;15.98;;
51664;SDS011;37751;52.408;12.536;2023-04-15T07:59:25;25.08;;;16.75;;
51664;SDS011;37751;52.408;12.536;2023-04-15T08:01:58;22.92;;;16.50;;
51664;SDS011;37751;52.408;12.536;2023-04-15T08:04:27;27.08;;;16.65;;
51664;SDS011;37751;52.408;12.536;2023-04-15T08:06:56;23.33;;;15.82;;
51664;SDS011;37751;52.408;12.536;2023-04-15T08:09:26;25.60;;;16.33;;
51664;SDS011;37751;52.408;12.536;2023-04-15T08:11:55;22.00;;;16.20;;
51664;SDS011;37751;52.408;12.536;2023-04-15T08:14:24;18.25;;;14.55;;
51664;SDS011;37751;52.408;12.536;2023-04-15T08:16:53;19.48;;;15.15;;
51664;SDS011;37751;52.408;12.536;2023-04-15T08:19:22;16.70;;;14.38;;
51664;SDS011;37751;52.408;12.536;2023-04-15T08:21:51;20.67;;;14.20;;
51664;SDS011;37751;52.408;12.536;2023-04-15T08:24:21;20.23;;;14.73;;
51664;SDS011;37751;52.408;12.536;2023-04-15T08:26:50;16.60;;;12.68;;
51664;SDS011;37751;52.408;12.536;2023-04-15T08:29:19;20.70;;;14.32;;
51664;SDS011;37751;52.408;12.536;2023-04-15T08:31:48;19.88;;;14.50;;
51664;SDS011;37751;52.408;12.536;2023-04-15T08:34:17;19.88;;;14.77;;
51664;SDS011;37751;52.408;12.536;2023-04-15T08:36:46;20.65;;;14.63;;
51664;SDS011;37751;52.408;12.536;2023-04-15T08:39:15;19.50;;;13.95;;
51664;SDS011;37751;52.408;12.536;2023-04-15T08:42:02;16.98;;;13.85;;
51664;SDS011;37751;52.408;12.536;2023-04-15T08:44:35;21.85;;;13.88;;
51664;SDS011;37751;52.408;12.536;2023-04-15T08:47:08;19.73;;;14.70;;
51664;SDS011;37751;52.408;12.536;2023-04-15T08:49:38;20.38;;;14.52;;
51664;SDS011;37751;52.408;12.536;2023-04-15T08:52:09;19.27;;;15.05;;
51664;SDS011;37751;52.408;12.536;2023-04-15T08:54:38;19.95;;;14.25;;
51664;SDS011;37751;52.408;12.536;2023-04-15T08:57:07;23.00;;;15.60;;
51664;SDS011;37751;52.408;12.536;2023-04-15T08:59:36;22.08;;;15.68;;
51664;SDS011;37751;52.408;12.536;2023-04-15T09:02:06;28.13;;;17.73;;
51664;SDS011;37751;52.408;12.536;2023-04-15T09:04:35;22.10;;;16.15;;
51664;SDS011;37751;52.408;12.536;2023-04-15T09:07:04;21.52;;;16.10;;
51664;SDS011;37751;52.408;12.536;2023-04-15T09:09:34;24.80;;;17.52;;
51664;SDS011;37751;52.408;12.536;2023-04-15T09:12:04;19.02;;;15.07;;
51664;SDS011;37751;52.408;12.536;2023-04-15T09:14:34;20.63;;;14.68;;
51664;SDS011;37751;52.408;12.536;2023-04-15T09:17:03;20.23;;;15.30;;
51664;SDS011;37751;52.408;12.536;2023-04-15T09:19:32;21.50;;;13.68;;
51664;SDS011;37751;52.408;12.536;2023-04-15T09:22:02;21.48;;;14.68;;
51664;SDS011;37751;52.408;12.536;2023-04-15T09:24:35;19.15;;;14.10;;
51664;SDS011;37751;52.408;12.536;2023-04-15T09:27:06;19.75;;;14.35;;
51664;SDS011;37751;52.408;12.536;2023-04-15T09:29:35;19.27;;;13.82;;
51664;SDS011;37751;52.408;12.536;2023-04-15T09:32:14;18.80;;;13.82;;
51664;SDS011;37751;52.408;12.536;2023-04-15T09:34:43;20.42;;;15.60;;
51664;SDS011;37751;52.408;12.536;2023-04-15T09:37:13;23.95;;;14.95;;
51664;SDS011;37751;52.408;12.536;2023-04-15T09:39:59;17.52;;;14.02;;
51664;SDS011;37751;52.408;12.536;2023-04-15T09:42:28;21.30;;;13.55;;
51664;SDS011;37751;52.408;12.536;2023-04-15T09:45:08;19.88;;;15.65;;
51664;SDS011;37751;52.408;12.536;2023-04-15T09:47:39;19.10;;;13.60;;
51664;SDS011;37751;52.408;12.536;2023-04-15T09:50:08;18.48;;;13.60;;
51664;SDS011;37751;52.408;12.536;2023-04-15T09:52:40;21.27;;;14.70;;
51664;SDS011;37751;52.408;12.536;2023-04-15T09:55:11;27.10;;;17.63;;
51664;SDS011;37751;52.408;12.536;2023-04-15T09:57:41;26.60;;;17.90;;
51664;SDS011;37751;52.408;12.536;2023-04-15T10:00:11;23.15;;;15.93;;
51664;SDS011;37751;52.408;12.536;2023-04-15T10:02:41;21.40;;;16.08;;
51664;SDS011;37751;52.408;12.536;2023-04-15T10:05:13;22.17;;;15.70;;
51664;SDS011;37751;52.408;12.536;2023-04-15T10:07:45;21.75;;;14.70;;
51664;SDS011;37751;52.408;12.536;2023-04-15T10:10:14;17.58;;;14.38;;
51664;SDS011;37751;52.408;12.536;2023-04-15T10:12:44;17.38;;;13.68;;
51664;SDS011;37751;52.408;12.536;2023-04-15T10:15:14;21.63;;;14.18;;
51664;SDS011;37751;52.408;12.536;2023-04-15T10:17:47;17.23;;;14.00;;
51664;SDS011;37751;52.408;12.536;2023-04-15T10:20:20;18.73;;;13.75;;
51664;SDS011;37751;52.408;12.536;2023-04-15T10:22:50;19.17;;;14.18;;
51664;SDS011;37751;52.408;12.536;2023-04-15T10:25:20;18.00;;;13.77;;
51664;SDS011;37751;52.408;12.536;2023-04-15T10:27:51;18.65;;;14.48;;
51664;SDS011;37751;52.408;12.536;2023-04-15T10:30:20;19.02;;;14.90;;
51664;SDS011;37751;52.408;12.536;2023-04-15T10:32:49;18.10;;;14.00;;
51664;SDS011;37751;52.408;12.536;2023-04-15T10:35:19;22.88;;;14.77;;
51664;SDS011;37751;52.408;12.536;2023-04-15T10:37:49;23.65;;;15.70;;
51664;SDS011;37751;52.408;12.536;2023-04-15T10:40:28;26.48;;;18.73;;
51664;SDS011;37751;52.408;12.536;2023-04-15T10:42:59;24.30;;;16.17;;
51664;SDS011;37751;52.408;12.536;2023-04-15T10:45:34;21.80;;;14.82;;
51664;SDS011;37751;52.408;12.536;2023-04-15T10:48:06;19.85;;;14.93;;
51664;SDS011;37751;52.408;12.536;2023-04-15T10:50:36;17.33;;;14.95;;
51664;SDS011;37751;52.408;12.536;2023-04-15T10:53:08;19.33;;;13.88;;
51664;SDS011;37751;52.408;12.536;2023-04-15T10:55:38;16.60;;;13.73;;
51664;SDS011;37751;52.408;12.536;2023-04-15T10:58:07;19.88;;;15.05;;
51664;SDS011;37751;52.408;12.536;2023-04-15T11:00:37;17.65;;;14.82;;
51664;SDS011;37751;52.408;12.536;2023-04-15T11:03:07;20.40;;;15.55;;
51664;SDS011;37751;52.408;12.536;2023-04-15T11:05:47;19.35;;;15.23;;
51664;SDS011;37751;52.408;12.536;2023-04-15T11:08:18;21.48;;;15.73;;
51664;SDS011;37751;52.408;12.536;2023-04-15T11:10:49;18.50;;;14.63;;
51664;SDS011;37751;52.408;12.536;2023-04-15T11:13:20;21.85;;;16.90;;
51664;SDS011;37751;52.408;12.536;2023-04-15T11:15:54;20.77;;;15.57;;
51664;SDS011;37751;52.408;12.536;2023-04-15T11:18:26;18.55;;;15.60;;
51664;SDS011;37751;52.408;12.536;2023-04-15T11:21:01;22.90;;;15.77;;
51664;SDS011;37751;52.408;12.536;2023-04-15T11:26:14;21.02;;;15.65;;
51664;SDS011;37751;52.408;12.536;2023-04-15T11:28:44;20.23;;;15.98;;
51664;SDS011;37751;52.408;12.536;2023-04-15T11:31:14;21.13;;;15.27;;
51664;SDS011;37751;52.408;12.536;2023-04-15T11:33:55;21.40;;;16.88;;
51664;SDS011;37751;52.408;12.536;2023-04-15T11:36:30;20.60;;;15.93;;
51664;SDS011;37751;52.408;12.536;2023-04-15T11:38:59;21.80;;;16.30;;
51664;SDS011;37751;52.408;12.536;2023-04-15T11:41:28;20.45;;;15.93;;
51664;SDS011;37751;52.408;12.536;2023-04-15T11:43:57;20.05;;;16.23;;
51664;SDS011;37751;52.408;12.536;2023-04-15T11:46:30;22.83;;;14.45;;
51664;SDS011;37751;52.408;12.536;2023-04-15T11:48:59;19.92;;;14.60;;
51664;SDS011;37751;52.408;12.536;2023-04-15T11:51:32;20.23;;;15.13;;
51664;SDS011;37751;52.408;12.536;2023-04-15T11:54:01;19.92;;;14.93;;
51664;SDS011;37751;52.408;12.536;2023-04-15T11:56:29;19.42;;;14.68;;
51664;SDS011;37751;52.408;12.536;2023-04-15T11:58:58;24.60;;;14.35;;
51664;SDS011;37751;52.408;12.536;2023-04-15T12:02:09;22.13;;;15.00;;
51664;SDS011;37751;52.408;12.536;2023-04-15T12:04:21;18.30;;;14.50;;
51664;SDS011;37751;52.408;12.536;2023-04-15T12:06:52;19.77;;;15.90;;
51664;SDS011;37751;52.408;12.536;2023-04-15T12:09:20;20.60;;;14.82;;
51664;SDS011;37751;52.408;12.536;2023-04-15T12:11:48;16.85;;;13.98;;
51664;SDS011;37751;52.408;12.536;2023-04-15T12:14:28;20.60;;;13.90;;
51664;SDS011;37751;52.408;12.536;2023-04-15T12:17:01;21.17;;;14.40;;
51664;SDS011;37751;52.408;12.536;2023-04-15T12:19:36;18.52;;;14.50;;
51664;SDS011;37751;52.408;12.536;2023-04-15T12:22:08;18.27;;;12.68;;
51664;SDS011;37751;52.408;12.536;2023-04-15T12:24:38;18.50;;;12.80;;
51664;SDS011;37751;52.408;12.536;2023-04-15T12:27:07;19.45;;;13.93;;
51664;SDS011;37751;52.408;12.536;2023-04-15T12:29:39;19.02;;;14.27;;
51664;SDS011;37751;52.408;12.536;2023-04-15T12:32:12;16.13;;;13.15;;
51664;SDS011;37751;52.408;12.536;2023-04-15T12:34:49;18.63;;;13.75;;
51664;SDS011;37751;52.408;12.536;2023-04-15T12:37:18;16.30;;;13.25;;
51664;SDS011;37751;52.408;12.536;2023-04-15T12:39:47;17.30;;;13.15;;
51664;SDS011;37751;52.408;12.536;2023-04-15T12:42:16;17.13;;;12.95;;
51664;SDS011;37751;52.408;12.536;2023-04-15T12:44:45;16.13;;;12.35;;
51664;SDS011;37751;52.408;12.536;2023-04-15T12:47:13;14.30;;;11.88;;
51664;SDS011;37751;52.408;12.536;2023-04-15T12:49:41;19.80;;;15.48;;
51664;SDS011;37751;52.408;12.536;2023-04-15T12:52:09;19.98;;;14.80;;
51664;SDS011;37751;52.408;12.536;2023-04-15T12:54:37;15.98;;;12.48;;
51664;SDS011;37751;52.408;12.536;2023-04-15T12:57:06;17.70;;;12.85;;
51664;SDS011;37751;52.408;12.536;2023-04-15T12:59:34;18.60;;;12.57;;
51664;SDS011;37751;52.408;12.536;2023-04-15T13:02:02;17.73;;;13.32;;
51664;SDS011;37751;52.408;12.536;2023-04-15T13:04:30;17.27;;;12.57;;
51664;SDS011;37751;52.408;12.536;2023-04-15T13:06:58;16.67;;;13.55;;
51664;SDS011;37751;52.408;12.536;2023-04-15T13:09:28;19.00;;;13.30;;
51664;SDS011;37751;52.408;12.536;2023-04-15T13:11:56;15.48;;;12.07;;
51664;SDS011;37751;52.408;12.536;2023-04-15T13:14:25;17.67;;;12.65;;
51664;SDS011;37751;52.408;12.536;2023-04-15T13:16:53;18.98;;;14.07;;
51664;SDS011;37751;52.408;12.536;2023-04-15T13:19:21;19.27;;;14.18;;
51664;SDS011;37751;52.408;12.536;2023-04-15T13:21:48;19.50;;;14.45;;
51664;SDS011;37751;52.408;12.536;2023-04-15T13:24:16;17.80;;;13.90;;
51664;SDS011;37751;52.408;12.536;2023-04-15T13:26:46;18.30;;;13.85;;
51664;SDS011;37751;52.408;12.536;2023-04-15T13:29:16;21.50;;;13.52;;
51664;SDS011;37751;52.408;12.536;2023-04-15T13:31:44;18.58;;;13.20;;
51664;SDS011;37751;52.408;12.536;2023-04-15T13:34:12;16.10;;;12.77;;
51664;SDS011;37751;52.408;12.536;2023-04-15T13:36:40;22.58;;;17.17;;
51664;SDS011;37751;52.408;12.536;2023-04-15T13:39:13;17.55;;;13.95;;
51664;SDS011;37751;52.408;12.536;2023-04-15T13:41:40;16.05;;;12.98;;
51664;SDS011;37751;52.408;12.536;2023-04-15T13:44:08;16.55;;;12.88;;
51664;SDS011;37751;52.408;12.536;2023-04-15T13:46:38;18.08;;;12.93;;
51664;SDS011;37751;52.408;12.536;2023-04-15T13:49:08;18.98;;;13.57;;
51664;SDS011;37751;52.408;12.536;2023-04-15T13:51:36;16.10;;;12.73;;
51664;SDS011;37751;52.408;12.536;2023-04-15T13:54:04;17.42;;;13.98;;
51664;SDS011;37751;52.408;12.536;2023-04-15T13:56:32;17.52;;;12.88;;
51664;SDS011;37751;52.408;12.536;2023-04-15T13:59:00;16.20;;;13.30;;
51664;SDS011;37751;52.408;12.536;2023-04-15T14:01:29;17.52;;;14.30;;
51664;SDS011;37751;52.408;12.536;2023-04-15T14:03:57;18.02;;;13.95;;
51664;SDS011;37751;52.408;12.536;2023-04-15T14:06:25;15.77;;;13.20;;
51664;SDS011;37751;52.408;12.536;2023-04-15T14:08:54;16.58;;;12.95;;
51664;SDS011;37751;52.408;12.536;2023-04-15T14:11:22;16.75;;;13.57;;
51664;SDS011;37751;52.408;12.536;2023-04-15T14:13:50;17.25;;;13.07;;
51664;SDS011;37751;52.408;12.536;2023-04-15T14:16:18;19.63;;;13.63;;
51664;SDS011;37751;52.408;12.536;2023-04-15T14:18:45;16.65;;;14.25;;
51664;SDS011;37751;52.408;12.536;2023-04-15T14:21:13;18.45;;;13.40;;
51664;SDS011;37751;52.408;12.536;2023-04-15T14:23:41;15.82;;;14.10;;
51664;SDS011;37751;52.408;12.536;2023-04-15T14:26:09;19.67;;;14.43;;